Time;durP1;ratioP1;P1;durP2;ratioP2;P2;SDS_P1;SDS_P2;PMS_P1;PMS_P2;Temp;Humidity;BMP_temperature;BMP_pressure;BME280_temperature;BME280_humidity;BME280_pressure;Samples;Min_cycle;Max_cycle;Signal;HPM_P1;HPM_P2
2024/01/19 00:00:41;;;;;;;39.60;27.60;;;;;;;5.17;77.77;98291.06;105439;1253;61266;-70
2024/01/19 00:03:08;;;;;;;39.00;27.10;;;;;;;5.17;77.81;98293.48;105666;1257;65769;-71
2024/01/19 00:05:35;;;;;;;40.90;27.40;;;;;;;5.17;77.80;98297.80;106126;1253;61331;-71
2024/01/19 00:08:02;;;;;;;40.40;28.10;;;;;;;5.17;77.78;98301.14;105684;1257;64082;-70
2024/01/19 00:10:30;;;;;;;38.00;27.60;;;;;;;5.17;77.67;98305.16;105745;1251;61600;-70
2024/01/19 00:12:57;;;;;;;41.10;27.60;;;;;;;5.17;77.80;98309.05;105771;1251;61440;-73
2024/01/19 00:15:24;;;;;;;42.60;28.90;;;;;;;5.16;77.76;98313.18;105724;1253;65813;-70
2024/01/19 00:18:04;;;;;;;40.00;27.00;;;;;;;5.14;77.76;98314.02;105856;1253;61336;-72
2024/01/19 00:20:31;;;;;;;40.30;28.10;;;;;;;5.14;77.81;98317.65;105616;1257;63844;-70
2024/01/19 00:22:58;;;;;;;43.80;27.30;;;;;;;5.16;77.79;98315.61;105858;1253;61260;-71
2024/01/19 00:25:25;;;;;;;42.10;27.80;;;;;;;5.17;77.77;98317.06;105763;1251;61366;-71
2024/01/19 00:27:52;;;;;;;36.00;25.80;;;;;;;5.17;77.76;98319.11;105799;1256;66034;-71
2024/01/19 00:30:19;;;;;;;39.10;27.10;;;;;;;5.17;77.76;98320.30;105810;1251;61241;-71
2024/01/19 00:32:46;;;;;;;37.40;25.70;;;;;;;5.17;77.72;98318.24;105804;1253;63846;-71
2024/01/19 00:35:13;;;;;;;43.80;28.30;;;;;;;5.16;77.72;98318.72;105646;1251;61225;-72
2024/01/19 00:37:43;;;;;;;41.50;27.90;;;;;;;5.14;77.75;98319.91;105509;1251;61292;-71
2024/01/19 00:40:11;;;;;;;41.90;27.60;;;;;;;5.15;77.75;98318.11;105616;1260;65928;-72
2024/01/19 00:42:41;;;;;;;37.40;26.50;;;;;;;5.15;77.74;98319.66;105655;1258;61225;-69
2024/01/19 00:45:12;;;;;;;37.70;26.50;;;;;;;5.14;77.69;98319.39;105740;1256;63925;-70
2024/01/19 00:47:39;;;;;;;43.80;27.20;;;;;;;5.13;77.75;98318.95;105529;1253;61280;-71
2024/01/19 00:50:08;;;;;;;38.70;27.00;;;;;;;5.12;77.84;98321.15;105660;1255;61295;-71
2024/01/19 00:52:35;;;;;;;37.70;26.40;;;;;;;5.11;77.75;98320.35;105698;1253;65982;-71
2024/01/19 00:55:02;;;;;;;37.30;25.40;;;;;;;5.11;77.71;98321.58;105641;1253;61183;-70
2024/01/19 00:57:29;;;;;;;40.40;27.00;;;;;;;5.10;77.67;98318.68;105744;1251;64059;-70
2024/01/19 00:59:56;;;;;;;37.10;26.50;;;;;;;5.10;77.78;98320.11;105871;1253;61419;-70
2024/01/19 01:02:27;;;;;;;34.70;24.30;;;;;;;5.10;77.89;98321.52;105765;1257;61356;-71
2024/01/19 01:04:54;;;;;;;39.10;27.00;;;;;;;5.10;77.83;98322.92;105921;1254;65891;-70
2024/01/19 01:07:22;;;;;;;37.30;26.30;;;;;;;5.08;77.77;98320.77;105873;1251;61368;-71
2024/01/19 01:09:49;;;;;;;38.80;26.80;;;;;;;5.08;77.81;98314.52;105898;1251;64069;-71
2024/01/19 01:12:16;;;;;;;37.10;26.10;;;;;;;5.08;77.84;98310.50;105825;1253;61228;-71
2024/01/19 01:14:43;;;;;;;38.70;26.90;;;;;;;5.10;77.91;98310.39;105830;1253;61267;-72
2024/01/19 01:17:10;;;;;;;38.40;26.70;;;;;;;5.11;77.84;98304.02;105726;1253;65856;-70
2024/01/19 01:19:37;;;;;;;36.50;26.80;;;;;;;5.11;77.84;98301.21;105857;1253;61333;-70
2024/01/19 01:22:05;;;;;;;36.70;26.10;;;;;;;5.11;77.86;98306.05;105828;1252;64117;-71
2024/01/19 01:24:33;;;;;;;35.00;24.90;;;;;;;5.11;77.80;98313.06;105672;1253;61200;-71
2024/01/19 01:27:00;;;;;;;36.30;26.60;;;;;;;5.10;77.87;98322.59;105802;1252;61257;-69
2024/01/19 01:29:27;;;;;;;37.70;26.50;;;;;;;5.08;77.90;98329.15;105541;1261;65848;-70
2024/01/19 01:31:54;;;;;;;41.40;28.00;;;;;;;5.09;77.92;98331.05;105668;1253;61313;-71
2024/01/19 01:34:21;;;;;;;38.30;27.60;;;;;;;5.10;77.96;98334.44;105692;1251;64034;-71
2024/01/19 01:36:48;;;;;;;40.50;27.50;;;;;;;5.10;77.87;98337.71;105685;1253;61332;-71
2024/01/19 01:39:16;;;;;;;41.40;26.80;;;;;;;5.11;77.89;98340.14;105750;1253;61241;-71
2024/01/19 01:41:44;;;;;;;37.70;27.80;;;;;;;5.11;77.94;98340.95;105668;1259;65905;-71
2024/01/19 01:44:12;;;;;;;41.10;27.90;;;;;;;5.11;77.91;98342.54;105564;1253;61306;-73
2024/01/19 01:46:39;;;;;;;38.90;26.90;;;;;;;5.10;77.88;98343.64;105899;1253;64058;-71
2024/01/19 01:49:05;;;;;;;36.50;27.00;;;;;;;5.10;77.90;98348.20;105741;1253;61354;-71
2024/01/19 01:51:33;;;;;;;47.30;25.50;;;;;;;5.10;77.87;98349.58;105607;1253;61285;-69
2024/01/19 01:54:01;;;;;;;52.10;27.20;;;;;;;5.10;77.86;98348.76;105663;1254;65877;-71
2024/01/19 01:56:28;;;;;;;43.20;25.60;;;;;;;5.08;77.81;98350.33;105767;1257;61186;-71
2024/01/19 01:58:55;;;;;;;47.50;25.80;;;;;;;5.07;77.73;98352.29;105778;1257;64117;-71
2024/01/19 02:01:22;;;;;;;39.50;24.90;;;;;;;5.07;77.81;98355.33;105924;1251;61225;-71
2024/01/19 02:03:49;;;;;;;41.60;24.00;;;;;;;5.05;77.83;98355.79;105569;1251;62136;-71
2024/01/19 02:06:16;;;;;;;52.20;26.10;;;;;;;5.04;77.84;98355.55;105713;1255;65889;-70
2024/01/19 02:08:43;;;;;;;41.60;25.60;;;;;;;5.03;77.83;98357.92;105904;1251;61278;-70
2024/01/19 02:11:10;;;;;;;35.90;25.80;;;;;;;5.02;77.81;98356.82;105731;1253;62871;-70
2024/01/19 02:13:37;;;;;;;43.80;25.50;;;;;;;5.01;77.82;98358.08;105743;1253;61200;-70
2024/01/19 02:16:04;;;;;;;43.30;24.70;;;;;;;5.01;77.88;98360.92;105510;1253;61266;-71
2024/01/19 02:18:31;;;;;;;36.50;24.70;;;;;;;5.00;77.90;98362.74;105601;1257;65994;-71
2024/01/19 02:20:58;;;;;;;33.50;24.70;;;;;;;5.00;77.89;98367.13;105875;1253;61372;-71
2024/01/19 02:23:27;;;;;;;39.10;26.10;;;;;;;5.00;77.88;98368.69;105816;1253;64076;-71
2024/01/19 02:25:54;;;;;;;36.70;25.00;;;;;;;5.00;77.89;98369.70;105846;1253;61991;-71
2024/01/19 02:28:21;;;;;;;38.70;25.90;;;;;;;5.00;77.88;98366.21;105704;1253;61247;-70
2024/01/19 02:30:48;;;;;;;37.20;24.40;;;;;;;5.01;77.91;98364.04;105589;1256;66052;-70
2024/01/19 02:33:15;;;;;;;36.60;25.30;;;;;;;5.02;77.93;98360.80;105620;1256;61335;-70
2024/01/19 02:35:42;;;;;;;32.90;25.50;;;;;;;5.03;77.96;98363.54;105913;1253;64070;-70
2024/01/19 02:38:09;;;;;;;38.80;24.80;;;;;;;5.04;77.94;98370.01;105657;1253;61406;-70
2024/01/19 02:40:36;;;;;;;35.60;25.20;;;;;;;5.05;77.92;98369.26;105582;1253;61248;-71
2024/01/19 02:43:03;;;;;;;33.90;24.60;;;;;;;5.06;77.93;98373.00;105798;1256;66029;-71
2024/01/19 02:45:30;;;;;;;34.90;24.60;;;;;;;5.07;77.91;98366.64;105881;1253;61931;-72
2024/01/19 02:47:57;;;;;;;42.10;24.90;;;;;;;5.08;77.91;98363.06;105554;1253;63901;-72
2024/01/19 02:50:24;;;;;;;53.10;24.10;;;;;;;5.08;77.86;98362.86;105646;1254;61269;-71
2024/01/19 02:52:51;;;;;;;42.60;26.00;;;;;;;5.07;77.85;98363.27;105643;1251;61279;-71
2024/01/19 02:55:18;;;;;;;41.90;26.00;;;;;;;5.07;77.83;98361.74;105778;1251;66013;-72
2024/01/19 02:57:45;;;;;;;35.40;26.40;;;;;;;5.07;77.88;98364.16;106014;1253;61254;-70
2024/01/19 03:00:13;;;;;;;48.40;25.70;;;;;;;5.07;77.90;98363.99;105666;1253;63909;-71
2024/01/19 03:02:40;;;;;;;36.50;25.50;;;;;;;5.07;77.87;98364.68;105576;1253;61155;-71
2024/01/19 03:05:06;;;;;;;40.00;25.20;;;;;;;5.08;77.83;98370.00;105727;1253;61348;-70
2024/01/19 03:07:33;;;;;;;42.50;25.40;;;;;;;5.10;77.91;98372.48;105586;1253;65988;-71
2024/01/19 03:10:00;;;;;;;35.90;24.60;;;;;;;5.11;77.83;98372.88;105650;1253;61395;-71
2024/01/19 03:12:27;;;;;;;36.00;24.80;;;;;;;5.12;77.83;98370.20;105649;1253;63891;-70
2024/01/19 03:14:54;;;;;;;35.30;25.40;;;;;;;5.14;77.87;98377.88;105515;1253;61352;-71
2024/01/19 03:17:21;;;;;;;34.60;24.30;;;;;;;5.16;77.92;98382.60;105769;1254;61250;-71
2024/01/19 03:19:48;;;;;;;53.30;24.10;;;;;;;5.15;77.92;98386.45;105637;1255;65835;-68
2024/01/19 03:22:15;;;;;;;50.50;25.00;;;;;;;5.16;77.93;98388.99;105417;1253;61277;-71
2024/01/19 03:24:42;;;;;;;41.80;25.50;;;;;;;5.17;77.96;98393.29;105399;1253;63895;-70
2024/01/19 03:27:09;;;;;;;58.20;24.30;;;;;;;5.18;77.87;98397.59;105642;1253;61330;-71
2024/01/19 03:29:36;;;;;;;62.90;24.10;;;;;;;5.19;77.95;98402.05;105659;1253;61301;-70
2024/01/19 03:32:03;;;;;;;66.00;23.90;;;;;;;5.17;77.93;98409.67;105741;1259;65716;-70
2024/01/19 03:34:50;;;;;;;157.60;25.20;;;;;;;5.16;77.91;98418.48;105690;1253;61353;-71
2024/01/19 03:37:17;;;;;;;51.80;23.80;;;;;;;5.15;77.83;98419.96;105609;1253;64041;-71
2024/01/19 03:39:44;;;;;;;124.90;24.30;;;;;;;5.15;77.83;98424.91;105728;1253;61445;-71
2024/01/19 03:42:11;;;;;;;47.40;24.10;;;;;;;5.15;77.86;98421.36;105748;1253;61274;-71
2024/01/19 03:44:39;;;;;;;75.00;23.60;;;;;;;5.16;77.83;98419.38;105744;1258;65968;-71
2024/01/19 03:47:06;;;;;;;155.00;25.60;;;;;;;5.16;77.78;98424.29;105724;1253;61248;-70
2024/01/19 03:49:33;;;;;;;126.60;24.90;;;;;;;5.15;77.81;98430.79;105681;1251;348832;-70
2024/01/19 03:52:00;;;;;;;141.90;24.10;;;;;;;5.15;77.79;98431.30;105914;1253;61325;-70
2024/01/19 03:54:27;;;;;;;73.30;24.30;;;;;;;5.15;77.75;98429.60;105852;1253;61250;-71
2024/01/19 03:56:58;;;;;;;84.60;23.60;;;;;;;5.14;77.74;98429.69;106023;1253;65978;-70
2024/01/19 03:59:25;;;;;;;170.70;23.40;;;;;;;5.14;77.71;98435.27;105691;1253;62017;-71
2024/01/19 04:01:52;;;;;;;83.70;24.60;;;;;;;5.11;77.69;98435.64;105715;1253;64162;-71
2024/01/19 04:04:19;;;;;;;111.10;23.60;;;;;;;5.11;77.71;98441.42;105998;1251;61136;-72
2024/01/19 04:06:46;;;;;;;149.80;22.90;;;;;;;5.11;77.72;98443.54;105884;1253;61251;-71
2024/01/19 04:09:16;;;;;;;223.10;23.90;;;;;;;5.09;77.62;98455.02;105722;1256;66106;-72
2024/01/19 04:11:43;;;;;;;81.70;22.50;;;;;;;5.07;77.47;98457.88;105935;1253;61365;-72
2024/01/19 04:14:11;;;;;;;129.50;23.20;;;;;;;5.04;77.43;98459.16;105995;1252;62616;-71
2024/01/19 04:16:38;;;;;;;187.60;22.30;;;;;;;5.04;77.48;98457.63;106002;1253;61203;-70
2024/01/19 04:19:05;;;;;;;184.20;22.50;;;;;;;5.04;77.44;98461.64;105925;1253;62012;-70
2024/01/19 04:21:32;;;;;;;177.50;22.60;;;;;;;5.02;77.42;98461.44;105826;1256;66017;-72
2024/01/19 04:23:59;;;;;;;137.10;21.20;;;;;;;5.00;77.42;98460.09;105795;1253;61346;-72
2024/01/19 04:26:27;;;;;;;83.00;20.30;;;;;;;4.98;77.45;98457.59;105902;1253;64057;-71
2024/01/19 04:28:55;;;;;;;59.60;21.70;;;;;;;4.98;77.46;98457.45;105862;1253;61228;-72
2024/01/19 04:31:22;;;;;;;85.60;20.70;;;;;;;4.98;77.49;98461.80;105703;1256;61475;-72
2024/01/19 04:33:49;;;;;;;57.60;19.30;;;;;;;4.98;77.45;98460.20;105890;1256;65851;-71
2024/01/19 04:36:17;;;;;;;94.60;21.00;;;;;;;4.98;77.46;98460.27;105893;1251;61359;-70
2024/01/19 04:38:45;;;;;;;107.20;21.00;;;;;;;4.97;77.46;98466.27;105941;1255;63926;-72
2024/01/19 04:41:12;;;;;;;55.30;21.00;;;;;;;4.97;77.49;98468.33;105810;1253;61204;-71
2024/01/19 04:43:39;;;;;;;73.50;19.20;;;;;;;4.97;77.43;98476.54;105937;1255;61228;-71
2024/01/19 04:46:06;;;;;;;44.10;18.80;;;;;;;4.95;77.30;98483.84;105907;1256;65861;-71
2024/01/19 04:48:32;;;;;;;61.00;18.90;;;;;;;4.93;77.33;98485.08;105829;1253;61301;-71
2024/01/19 04:51:00;;;;;;;46.90;20.20;;;;;;;4.92;77.34;98487.77;105904;1253;63873;-70
2024/01/19 04:53:27;;;;;;;54.80;20.50;;;;;;;4.92;77.40;98491.48;105611;1252;61488;-71
2024/01/19 04:55:54;;;;;;;64.30;20.80;;;;;;;4.91;77.42;98495.51;105830;1253;61267;-71
2024/01/19 04:58:20;;;;;;;65.20;20.20;;;;;;;4.91;77.36;98504.23;106079;1256;65909;-69
2024/01/19 05:00:48;;;;;;;57.50;21.40;;;;;;;4.92;77.34;98509.23;105915;1254;61258;-71
2024/01/19 05:03:15;;;;;;;78.20;19.70;;;;;;;4.92;77.35;98518.86;105855;1256;64016;-71
2024/01/19 05:05:42;;;;;;;32.60;19.50;;;;;;;4.91;77.29;98525.38;105650;1253;61195;-70
2024/01/19 05:08:09;;;;;;;40.40;19.40;;;;;;;4.89;77.24;98526.92;105818;1254;61320;-70
2024/01/19 05:10:36;;;;;;;99.80;20.10;;;;;;;4.88;77.28;98533.98;105674;1256;66102;-71
2024/01/19 05:13:03;;;;;;;59.10;19.30;;;;;;;4.88;77.28;98537.33;105835;1253;61363;-71
2024/01/19 05:15:30;;;;;;;47.70;20.40;;;;;;;4.85;77.24;98530.23;105660;1256;63959;-69
2024/01/19 05:17:57;;;;;;;25.60;20.70;;;;;;;4.85;77.29;98531.30;105843;1256;61329;-71
2024/01/19 05:20:24;;;;;;;81.70;20.50;;;;;;;4.85;77.30;98534.11;105896;1253;61267;-71
2024/01/19 05:22:52;;;;;;;109.40;21.00;;;;;;;4.86;77.23;98534.85;105993;1256;65986;-70
2024/01/19 05:25:18;;;;;;;117.90;20.80;;;;;;;4.86;77.12;98539.94;105932;1254;61280;-71
2024/01/19 05:27:53;;;;;;;22.60;19.10;;;;;;;4.84;77.04;98547.98;105890;1254;63949;-70
2024/01/19 05:30:20;;;;;;;44.20;19.50;;;;;;;4.82;77.06;98549.88;105586;1253;61343;-70
2024/01/19 05:32:47;;;;;;;43.90;19.80;;;;;;;4.82;77.08;98555.11;105746;1251;61254;-71
2024/01/19 05:35:15;;;;;;;48.40;20.20;;;;;;;4.83;77.14;98558.29;105765;1260;66004;-71
2024/01/19 05:37:41;;;;;;;29.20;20.50;;;;;;;4.85;77.27;98564.04;105932;1253;61335;-70
2024/01/19 05:40:09;;;;;;;43.20;25.30;;;;;;;4.86;77.28;98569.55;105787;1256;63785;-71
2024/01/19 05:42:36;;;;;;;158.30;40.20;;;;;;;4.86;77.30;98570.56;105868;1253;61352;-71
2024/01/19 05:45:03;;;;;;;65.10;30.10;;;;;;;4.86;77.25;98576.92;105722;1256;61378;-71
2024/01/19 05:47:33;;;;;;;85.70;22.00;;;;;;;4.85;77.29;98587.83;105826;1256;66018;-71
2024/01/19 05:50:00;;;;;;;103.50;20.80;;;;;;;4.82;77.30;98592.55;105963;1256;61337;-70
2024/01/19 05:52:27;;;;;;;87.00;19.90;;;;;;;4.81;77.30;98600.14;105936;1253;63971;-69
2024/01/19 05:54:54;;;;;;;46.20;20.50;;;;;;;4.81;77.35;98599.48;105939;1253;61250;-71
2024/01/19 05:57:21;;;;;;;35.40;24.30;;;;;;;4.80;77.29;98602.81;106193;1253;61276;-71
2024/01/19 05:59:49;;;;;;;111.00;24.60;;;;;;;4.81;77.40;98611.10;105711;1251;65920;-72
2024/01/19 06:02:15;;;;;;;81.00;27.20;;;;;;;4.81;77.38;98617.05;105615;1254;61283;-69
2024/01/19 06:04:42;;;;;;;160.60;33.10;;;;;;;4.81;77.40;98621.24;105614;1254;64783;-71
2024/01/19 06:07:09;;;;;;;147.20;33.60;;;;;;;4.82;77.42;98630.06;105639;1254;61200;-72
2024/01/19 06:09:36;;;;;;;147.20;34.30;;;;;;;4.84;77.36;98635.52;105668;1253;61254;-72
2024/01/19 06:12:05;;;;;;;59.70;35.20;;;;;;;4.86;77.35;98639.02;105835;1256;67947;-71
2024/01/19 06:14:32;;;;;;;113.10;42.10;;;;;;;4.87;77.35;98644.25;105734;1251;61133;-69
2024/01/19 06:17:01;;;;;;;114.50;47.30;;;;;;;4.90;77.34;98646.30;105883;1251;64034;-70
2024/01/19 06:19:28;;;;;;;94.90;47.00;;;;;;;4.92;77.39;98648.97;105934;1256;61161;-70
2024/01/19 06:21:55;;;;;;;106.70;48.30;;;;;;;4.93;77.37;98654.45;105982;1253;61290;-69
2024/01/19 06:24:25;;;;;;;91.90;47.40;;;;;;;4.95;77.37;98650.48;105630;1258;66074;-70
2024/01/19 06:26:52;;;;;;;100.20;47.70;;;;;;;4.97;77.34;98648.21;105560;1251;61347;-71
2024/01/19 06:29:19;;;;;;;124.70;57.40;;;;;;;4.97;77.31;98657.56;105646;1257;64118;-70
2024/01/19 06:31:47;;;;;;;127.20;59.20;;;;;;;4.97;77.27;98664.77;105837;1256;61199;-71
2024/01/19 06:34:14;;;;;;;78.20;44.30;;;;;;;4.95;77.24;98673.26;105631;1251;61308;-70
2024/01/19 06:36:45;;;;;;;60.60;36.20;;;;;;;4.95;77.27;98676.96;105938;1256;65926;-70
2024/01/19 06:39:12;;;;;;;43.60;28.70;;;;;;;4.96;77.37;98682.29;105885;1256;61333;-71
2024/01/19 06:41:44;;;;;;;33.70;24.40;;;;;;;5.00;77.44;98686.67;105754;1253;63707;-69
2024/01/19 06:44:11;;;;;;;31.10;22.00;;;;;;;5.02;77.54;98687.35;105716;1256;61330;-70
2024/01/19 06:46:43;;;;;;;31.00;23.30;;;;;;;5.05;77.59;98688.87;105858;1254;61334;-70
2024/01/19 06:49:09;;;;;;;32.20;22.40;;;;;;;5.07;77.64;98690.54;105818;1257;66076;-71
2024/01/19 06:51:37;;;;;;;31.50;22.70;;;;;;;5.11;77.66;98690.41;105618;1256;61420;-70
2024/01/19 06:54:04;;;;;;;31.50;22.00;;;;;;;5.14;77.65;98689.81;105530;1251;62730;-70
2024/01/19 06:56:31;;;;;;;31.40;22.40;;;;;;;5.15;77.65;98690.06;105868;1252;61150;-71
2024/01/19 06:58:57;;;;;;;29.70;22.50;;;;;;;5.16;77.67;98689.83;105962;1252;61224;-72
2024/01/19 07:01:25;;;;;;;32.80;23.30;;;;;;;5.17;77.67;98688.80;106080;1256;67904;-72
2024/01/19 07:03:52;;;;;;;32.50;23.40;;;;;;;5.18;77.66;98693.63;105670;1257;61311;-70
2024/01/19 07:06:19;;;;;;;32.50;24.00;;;;;;;5.19;77.65;98708.04;105834;1254;64041;-70
2024/01/19 07:08:46;;;;;;;39.30;26.70;;;;;;;5.20;77.63;98714.25;105853;1259;61241;-71
2024/01/19 07:11:13;;;;;;;42.20;29.70;;;;;;;5.21;77.60;98716.48;105629;1257;61273;-71
2024/01/19 07:13:41;;;;;;;47.90;34.10;;;;;;;5.22;77.61;98722.31;105772;1259;67718;-71
2024/01/19 07:16:08;;;;;;;40.60;27.70;;;;;;;5.23;77.59;98726.40;105868;1251;61269;-71
2024/01/19 07:18:36;;;;;;;38.30;27.80;;;;;;;5.24;77.53;98726.05;105714;1258;65735;-71
2024/01/19 07:21:04;;;;;;;39.80;28.20;;;;;;;5.25;77.54;98730.48;105981;1256;61234;-71
2024/01/19 07:23:31;;;;;;;41.20;29.10;;;;;;;5.25;77.62;98737.89;105773;1254;61877;-71
2024/01/19 07:25:59;;;;;;;42.20;30.30;;;;;;;5.26;77.50;98739.09;105876;1257;67790;-71
2024/01/19 07:28:25;;;;;;;38.70;27.50;;;;;;;5.26;77.41;98745.86;105928;1256;68544;-72
2024/01/19 07:30:53;;;;;;;38.80;29.00;;;;;;;5.26;77.44;98750.08;105797;1255;74301;-70
2024/01/19 07:33:20;;;;;;;40.80;29.10;;;;;;;5.26;77.55;98755.84;105797;1256;61192;-70
2024/01/19 07:35:59;;;;;;;40.00;29.00;;;;;;;5.26;77.48;98761.73;105773;1255;61347;-71
2024/01/19 07:38:27;;;;;;;35.00;26.20;;;;;;;5.27;77.46;98767.61;105775;1257;68398;-69
2024/01/19 07:40:54;;;;;;;34.90;26.10;;;;;;;5.27;77.48;98771.96;105942;1256;61310;-70
2024/01/19 07:43:21;;;;;;;31.60;23.30;;;;;;;5.27;77.52;98777.00;105695;1257;65926;-72
2024/01/19 07:45:48;;;;;;;34.50;25.00;;;;;;;5.28;77.42;98781.99;105779;1253;61503;-74
2024/01/19 07:48:15;;;;;;;30.10;22.10;;;;;;;5.29;77.40;98787.17;105761;1256;61225;-74
2024/01/19 07:50:43;;;;;;;28.60;21.80;;;;;;;5.29;77.33;98790.48;105856;1256;67969;-75
2024/01/19 07:53:10;;;;;;;27.50;20.60;;;;;;;5.28;77.44;98796.27;105731;1251;61307;-74
2024/01/19 07:55:37;;;;;;;25.80;19.60;;;;;;;5.28;77.35;98802.05;105783;1256;65553;-74
2024/01/19 07:58:04;;;;;;;25.00;19.80;;;;;;;5.27;77.29;98806.55;106191;1254;61253;-73
2024/01/19 08:00:31;;;;;;;25.50;20.00;;;;;;;5.25;77.27;98815.59;105702;1260;61355;-77
2024/01/19 08:02:59;;;;;;;25.90;19.30;;;;;;;5.23;77.12;98816.86;105858;1256;67745;-74
2024/01/19 08:05:26;;;;;;;24.40;18.40;;;;;;;5.21;77.18;98821.50;105711;1251;61221;-75
2024/01/19 08:07:53;;;;;;;23.80;17.90;;;;;;;5.21;77.19;98819.41;105724;1266;65887;-75
2024/01/19 08:10:20;;;;;;;24.40;18.10;;;;;;;5.20;77.23;98821.25;105695;1256;61238;-76
2024/01/19 08:12:48;;;;;;;22.10;17.00;;;;;;;5.18;77.20;98825.73;105929;1254;61406;-76
2024/01/19 08:15:15;;;;;;;22.70;16.80;;;;;;;5.16;77.19;98832.70;105933;1257;66789;-76
2024/01/19 08:17:42;;;;;;;21.30;17.10;;;;;;;5.16;77.18;98838.50;105940;1256;66190;-75
2024/01/19 08:20:10;;;;;;;20.40;16.10;;;;;;;5.15;77.18;98845.86;105727;1257;71770;-78
2024/01/19 08:22:37;;;;;;;21.80;16.20;;;;;;;5.13;77.09;98847.83;105734;1251;61381;-77
2024/01/19 08:25:05;;;;;;;20.40;15.40;;;;;;;5.08;76.99;98852.02;105838;1253;61251;-77
2024/01/19 08:27:32;;;;;;;21.20;16.30;;;;;;;5.05;76.95;98854.61;105750;1257;75243;-77
2024/01/19 08:29:59;;;;;;;19.20;14.70;;;;;;;5.04;77.02;98859.33;105844;1257;67333;-77
2024/01/19 08:32:27;;;;;;;18.80;15.20;;;;;;;5.04;76.92;98863.20;105958;1251;65586;-77
2024/01/19 08:34:55;;;;;;;20.30;15.50;;;;;;;5.03;76.91;98862.58;105944;1254;61278;-77
2024/01/19 08:37:21;;;;;;;19.40;15.10;;;;;;;5.02;76.83;98866.15;105692;1258;61353;-77
2024/01/19 08:39:50;;;;;;;19.40;15.20;;;;;;;5.01;76.82;98867.31;105715;1258;67861;-77
2024/01/19 08:42:17;;;;;;;20.50;15.60;;;;;;;5.00;76.84;98866.98;105776;1251;61282;-76
2024/01/19 08:44:44;;;;;;;20.80;15.80;;;;;;;4.99;76.79;98869.51;105762;1257;65773;-78
2024/01/19 08:47:11;;;;;;;19.80;15.50;;;;;;;4.97;76.72;98876.65;105886;1256;61265;-78
2024/01/19 08:49:38;;;;;;;20.80;15.60;;;;;;;4.96;76.72;98881.66;105895;1256;61294;-78
2024/01/19 08:52:06;;;;;;;20.90;16.30;;;;;;;4.94;76.64;98891.08;105944;1254;67872;-77
2024/01/19 08:54:33;;;;;;;24.40;17.30;;;;;;;4.91;76.61;98895.10;105720;1256;67388;-75
2024/01/19 08:57:00;;;;;;;23.10;17.70;;;;;;;4.89;76.55;98900.66;105739;1251;65809;-69
2024/01/19 08:59:32;;;;;;;23.40;16.90;;;;;;;4.87;76.49;98903.95;106042;1257;61157;-72
2024/01/19 09:01:59;;;;;;;23.60;18.00;;;;;;;4.86;76.57;98907.91;105875;1253;61275;-72
2024/01/19 09:04:26;;;;;;;26.20;17.10;;;;;;;4.84;76.47;98912.08;105701;1253;68279;-72
2024/01/19 09:06:55;;;;;;;24.80;18.10;;;;;;;4.83;76.49;98914.41;105972;1256;61349;-72
2024/01/19 09:09:22;;;;;;;23.10;17.40;;;;;;;4.83;76.50;98910.55;105881;1257;65873;-72
2024/01/19 09:11:49;;;;;;;23.70;17.30;;;;;;;4.84;76.48;98912.39;105822;1252;61262;-72
2024/01/19 09:14:16;;;;;;;32.60;22.10;;;;;;;4.85;76.48;98915.09;105695;1256;61278;-72
2024/01/19 09:16:43;;;;;;;33.20;21.10;;;;;;;4.86;76.50;98920.63;105843;1257;67503;-71
2024/01/19 09:19:11;;;;;;;26.10;18.60;;;;;;;4.86;76.55;98928.15;105785;1257;61301;-72
2024/01/19 09:21:44;;;;;;;46.10;24.60;;;;;;;4.85;76.48;98931.15;105875;1255;65775;-72
2024/01/19 09:24:12;;;;;;;34.80;21.90;;;;;;;4.86;76.36;98939.27;105831;1256;61440;-71
2024/01/19 09:26:39;;;;;;;40.20;25.90;;;;;;;4.87;76.35;98942.73;105896;1257;61433;-71
2024/01/19 09:29:08;;;;;;;24.40;18.20;;;;;;;4.88;76.21;98941.95;105942;1253;67450;-72
2024/01/19 09:31:46;;;;;;;21.30;15.90;;;;;;;4.87;76.24;98939.72;105938;1257;61349;-73
2024/01/19 09:34:14;;;;;;;21.90;16.00;;;;;;;4.86;76.24;98949.21;105810;1251;72082;-72
2024/01/19 09:36:41;;;;;;;20.30;15.50;;;;;;;4.85;76.16;98951.41;105689;1254;61314;-71
2024/01/19 09:39:08;;;;;;;18.80;13.80;;;;;;;4.84;76.17;98963.33;105910;1252;61221;-71
2024/01/19 09:41:39;;;;;;;20.20;14.90;;;;;;;4.83;76.09;98961.34;105839;1255;75208;-72
2024/01/19 09:44:10;;;;;;;18.10;14.10;;;;;;;4.81;76.05;98962.67;105963;1251;61245;-71
2024/01/19 09:46:47;;;;;;;19.00;14.10;;;;;;;4.80;76.01;98961.23;105917;1256;64686;-71
2024/01/19 09:49:38;;;;;;;16.50;12.90;;;;;;;4.77;75.97;98964.61;105930;1257;61248;-73
2024/01/19 09:52:34;;;;;;;16.30;13.10;;;;;;;4.74;75.98;98969.52;105867;1258;61204;-71
2024/01/19 09:55:01;;;;;;;17.60;12.30;;;;;;;4.72;75.95;98970.18;105652;1256;75482;-70
2024/01/19 09:57:29;;;;;;;15.50;12.10;;;;;;;4.71;75.92;98970.99;105809;1254;61344;-72
2024/01/19 09:59:58;;;;;;;15.10;11.70;;;;;;;4.70;75.88;98973.00;105660;1257;65715;-73
2024/01/19 10:02:26;;;;;;;13.20;10.00;;;;;;;4.70;75.90;98975.60;106150;1253;61319;-72
2024/01/19 10:04:53;;;;;;;12.70;10.30;;;;;;;4.70;75.87;98979.96;105760;1256;61320;-72
2024/01/19 10:07:20;;;;;;;12.50;10.10;;;;;;;4.70;75.78;98980.15;105782;1255;68225;-73
2024/01/19 10:09:51;;;;;;;11.10;9.60;;;;;;;4.70;75.75;98981.15;105973;1251;61227;-73
2024/01/19 10:12:19;;;;;;;11.00;9.10;;;;;;;4.70;75.77;98984.15;105755;1255;65890;-72
2024/01/19 10:14:45;;;;;;;11.50;10.00;;;;;;;4.70;75.78;98984.86;105869;1256;61317;-73
2024/01/19 10:17:13;;;;;;;10.70;9.10;;;;;;;4.71;75.84;98992.06;105812;1258;61355;-72
2024/01/19 10:19:40;;;;;;;11.00;9.10;;;;;;;4.72;75.76;98998.27;105726;1254;67752;-74
2024/01/19 10:22:25;;;;;;;11.20;9.00;;;;;;;4.74;75.76;98999.70;105612;1251;61355;-73
2024/01/19 10:24:59;;;;;;;11.00;9.20;;;;;;;4.75;75.73;99004.33;105943;1256;65835;-73
2024/01/19 10:27:39;;;;;;;10.60;9.10;;;;;;;4.75;75.77;99011.15;106102;1252;61794;-72
2024/01/19 10:30:11;;;;;;;10.00;8.70;;;;;;;4.73;75.59;99017.91;106082;1256;61325;-71
2024/01/19 10:32:39;;;;;;;12.10;9.70;;;;;;;4.72;75.43;99020.42;106012;1252;67678;-70
2024/01/19 10:35:10;;;;;;;10.50;9.00;;;;;;;4.71;75.42;99019.80;105870;1251;61330;-72
2024/01/19 10:37:37;;;;;;;10.10;8.60;;;;;;;4.70;75.43;99024.08;105907;1254;71978;-72
2024/01/19 10:40:19;;;;;;;10.70;8.80;;;;;;;4.69;75.36;99025.35;105604;1257;61342;-69
2024/01/19 10:42:47;;;;;;;10.20;8.80;;;;;;;4.68;75.31;99026.83;105958;1256;61154;-70
2024/01/19 10:45:21;;;;;;;10.50;8.90;;;;;;;4.66;75.22;99028.73;105663;1255;66598;-71
2024/01/19 10:47:50;;;;;;;9.60;8.50;;;;;;;4.63;75.10;99028.08;109090;1254;60222;-70
2024/01/19 10:50:17;;;;;;;11.60;9.00;;;;;;;4.60;75.04;99026.91;109311;1251;65962;-70
2024/01/19 10:52:46;;;;;;;11.10;9.00;;;;;;;4.56;74.95;99024.41;109197;1251;59280;-70
2024/01/19 10:55:20;;;;;;;10.40;9.20;;;;;;;4.53;74.87;99023.99;109267;1251;59096;-73
2024/01/19 10:58:05;;;;;;;9.90;8.80;;;;;;;4.50;74.72;99023.85;109361;1251;68108;-77
2024/01/19 11:00:36;;;;;;;9.40;8.40;;;;;;;4.48;74.64;99026.42;109310;1251;59991;-73
2024/01/19 11:03:03;;;;;;;10.80;8.50;;;;;;;4.50;74.64;99029.59;107377;1255;73339;-71
2024/01/19 11:05:31;;;;;;;9.70;8.30;;;;;;;4.50;74.56;99036.73;106191;1251;61150;-72
2024/01/19 11:08:02;;;;;;;11.00;9.10;;;;;;;4.48;74.41;99039.35;106164;1257;61233;-72
2024/01/19 11:10:31;;;;;;;9.70;8.60;;;;;;;4.48;74.34;99045.05;107517;1254;66683;-75
2024/01/19 11:12:59;;;;;;;10.40;8.90;;;;;;;4.50;74.42;99049.29;105887;1257;61346;-74
2024/01/19 11:15:36;;;;;;;10.50;8.30;;;;;;;4.50;74.37;99054.66;106182;1252;66287;-73
2024/01/19 11:18:04;;;;;;;9.60;8.60;;;;;;;4.50;74.30;99053.86;106043;1251;61440;-72
2024/01/19 11:20:32;;;;;;;10.70;8.70;;;;;;;4.48;74.25;99057.98;106118;1251;61375;-73